In Rescue
 
Open Full Screen Window  High Contrast Mode
Wind Gusting 00 knots
09
April 20, 2024 7:50 AM CDT
Weather Information
Wind Direction
  300 °
Wind Speed
  09 kt (10 mph)
Wind Gust
  00 kt (0 mph)
Altimeter
30.14 in
Visibility
10 SM
Temperature
-02° C
28° F
Dewpoint
-07° C
19° F
Humidity
69%
Sky Condition
Overcast @ 2,800 ft
MVFR

METAR KCOQ 201250Z AUTO 30009KT 10SM OVC028 M02/M07 A3014 RMK AO2 TSNO

FAA Disclaimer: The data displayed is for advisory purposes only and is not to be used for flight planning or operations.